Cavern City Air Terminal
KCNM : now visible

Airfield :











YOU CAN JOIN US ON...

 
LOGIN :

Register | Disclaimer

   EN    FR    IT 

 









Legend :    VFR   Marginal VFR   IFR   Intensive IFR   Very Intensive IFR
Visi :
Ceiling :
>= 8 km
>= 3000ft
5 to 8 km
1000 to 3000 ft
1500m to 5 km
500 to 1000 ft
800 to 1500m
200 to 500 ft
< 800m
< 200 ft
Symbols :   Thunderstorms  Fog  Heavy snow  Heavy precipitations  Wind > 20 kt






- Airport Elevation : 3295 ft
- IATA code : CNM


KCNM - Cavern City Air Terminal

CURRENT METAR :
  • 200353Z AUTO 16005KT 10SM CLR 14/06 A3006 RMK AO2 SLP148 T01440056

EXPIRED METARs :
  • 200253Z AUTO 14006KT 10SM CLR 16/06 A3004 RMK AO2 SLP142 T01560061 53012
  • 200153Z AUTO 14010KT 10SM CLR 17/06 A3002 RMK AO2 SLP135 T01670061
  • 200053Z AUTO 14009KT 10SM CLR 18/07 A3001 RMK AO2 SLP129 T01780067
  • 192353Z AUTO 16011G18KT 10SM CLR 19/07 A3000 RMK AO2 SLP127 T01890067 10194 20144 56022

TAF KCNM
Valid from the 20 at 00:00 until the 21 at 00:00 UTC


192321Z 2000/2024 14008KT P6SM SCT250
FM200900 09008KT P6SM OVC015
FM201300 05012KT P6SM OVC007
FM201900 07010KT P6SM OVC025
KZAB FIR / North America



MET'MAP, your aeronautical weather chart ! - Copyright ORBIFLY December 2007 - Disclaimer

ORBIFLY MET'MAP TEAM :

Programming & Development : Alexandra Zaïnal
Original concept : Baudouin d'Aumeries
Technical & hardware support : Manuel Goepfert
Assistance : Marc-Olivier Méhu




SOURCES & CREDITS :

   NOAA       Earth
Advisory